Las Mesitas, Colorado
Current Conditions -  °F | °C
As of 5:52 AM on Wednesday 26 Nov 2014 (Local Time) from KALS Reporting Station
Scattered Clouds Scattered Clouds  
Wind Chill:   Ceiling: Unl
Heat Index: 10°   Visibility: 10mi
Dew Point:   Wind: 5mph
Humidity: 80%   Direction: 160°SSE
Pressure: 30.27"   Gusts: NA
Location:  37.1816°N, 106.262°W
Report Text: KALS 261252Z AUTO 16004KT 10SM SCT065 M12/M15 A3027 RMK AO2 SLP314 T11221150
Loading
Personal Weather Stations






























Interactive Weather Map New forecast layout! Learn more

10-Day Weather Forecast

Advertisements
Track Severe Weather on mobile